sensor_id;sensor_type;location;lat;lon;timestamp;temperature;humidity
13336;DHT22;6737;51.480;11.962;2024-03-17T00:02:23;4.80;99.90
13336;DHT22;6737;51.480;11.962;2024-03-17T00:04:49;4.70;99.90
13336;DHT22;6737;51.480;11.962;2024-03-17T00:07:14;4.70;99.90
13336;DHT22;6737;51.480;11.962;2024-03-17T00:09:41;4.60;99.90
13336;DHT22;6737;51.480;11.962;2024-03-17T00:12:07;4.60;99.90
13336;DHT22;6737;51.480;11.962;2024-03-17T00:14:34;4.60;99.90
13336;DHT22;6737;51.480;11.962;2024-03-17T00:17:01;4.60;99.90
13336;DHT22;6737;51.480;11.962;2024-03-17T00:19:27;4.60;99.90
13336;DHT22;6737;51.480;11.962;2024-03-17T00:21:52;4.60;99.90
13336;DHT22;6737;51.480;11.962;2024-03-17T00:24:19;4.60;99.90
13336;DHT22;6737;51.480;11.962;2024-03-17T00:26:48;4.60;99.90
13336;DHT22;6737;51.480;11.962;2024-03-17T00:29:17;4.60;99.90
13336;DHT22;6737;51.480;11.962;2024-03-17T00:31:42;4.60;99.90
13336;DHT22;6737;51.480;11.962;2024-03-17T00:34:08;4.60;99.90
13336;DHT22;6737;51.480;11.962;2024-03-17T00:36:34;4.50;99.90
13336;DHT22;6737;51.480;11.962;2024-03-17T00:39:00;4.50;99.90
13336;DHT22;6737;51.480;11.962;2024-03-17T00:41:26;4.40;99.90
13336;DHT22;6737;51.480;11.962;2024-03-17T00:43:52;4.50;99.90
13336;DHT22;6737;51.480;11.962;2024-03-17T00:46:21;4.50;99.90
13336;DHT22;6737;51.480;11.962;2024-03-17T00:48:48;4.50;99.90
13336;DHT22;6737;51.480;11.962;2024-03-17T00:51:15;4.50;99.90
13336;DHT22;6737;51.480;11.962;2024-03-17T00:53:41;4.50;99.90
13336;DHT22;6737;51.480;11.962;2024-03-17T00:56:07;4.50;99.90
13336;DHT22;6737;51.480;11.962;2024-03-17T00:58:33;4.50;99.90
13336;DHT22;6737;51.480;11.962;2024-03-17T01:00:59;4.40;99.90
13336;DHT22;6737;51.480;11.962;2024-03-17T01:03:24;4.50;99.90
13336;DHT22;6737;51.480;11.962;2024-03-17T01:05:50;4.50;99.90
13336;DHT22;6737;51.480;11.962;2024-03-17T01:08:18;4.40;99.90
13336;DHT22;6737;51.480;11.962;2024-03-17T01:10:46;4.40;99.90
13336;DHT22;6737;51.480;11.962;2024-03-17T01:13:15;4.30;99.90
13336;DHT22;6737;51.480;11.962;2024-03-17T01:15:41;4.40;99.90
13336;DHT22;6737;51.480;11.962;2024-03-17T01:18:07;4.30;99.90
13336;DHT22;6737;51.480;11.962;2024-03-17T01:20:35;4.30;99.90
13336;DHT22;6737;51.480;11.962;2024-03-17T01:23:01;4.20;99.90
13336;DHT22;6737;51.480;11.962;2024-03-17T01:25:27;4.30;99.90
13336;DHT22;6737;51.480;11.962;2024-03-17T01:27:55;4.30;99.90
13336;DHT22;6737;51.480;11.962;2024-03-17T01:30:22;4.30;99.90
13336;DHT22;6737;51.480;11.962;2024-03-17T01:32:48;4.20;99.90
13336;DHT22;6737;51.480;11.962;2024-03-17T01:35:14;4.20;99.90
13336;DHT22;6737;51.480;11.962;2024-03-17T01:37:41;4.20;99.90
13336;DHT22;6737;51.480;11.962;2024-03-17T01:40:08;4.10;99.90
13336;DHT22;6737;51.480;11.962;2024-03-17T01:42:38;4.10;99.90
13336;DHT22;6737;51.480;11.962;2024-03-17T01:45:18;4.10;99.90
13336;DHT22;6737;51.480;11.962;2024-03-17T01:47:46;4.00;99.90
13336;DHT22;6737;51.480;11.962;2024-03-17T01:50:12;4.00;99.90
13336;DHT22;6737;51.480;11.962;2024-03-17T01:52:39;4.00;99.90
13336;DHT22;6737;51.480;11.962;2024-03-17T01:55:05;4.00;99.90
13336;DHT22;6737;51.480;11.962;2024-03-17T01:57:32;4.00;99.90
13336;DHT22;6737;51.480;11.962;2024-03-17T01:59:59;4.00;99.90
13336;DHT22;6737;51.480;11.962;2024-03-17T02:02:25;4.00;99.90
13336;DHT22;6737;51.480;11.962;2024-03-17T02:04:51;4.00;99.90
13336;DHT22;6737;51.480;11.962;2024-03-17T02:07:18;4.00;99.90
13336;DHT22;6737;51.480;11.962;2024-03-17T02:09:44;3.90;99.90
13336;DHT22;6737;51.480;11.962;2024-03-17T02:12:10;3.80;99.90
13336;DHT22;6737;51.480;11.962;2024-03-17T02:14:37;3.90;99.90
13336;DHT22;6737;51.480;11.962;2024-03-17T02:17:03;3.90;99.90
13336;DHT22;6737;51.480;11.962;2024-03-17T02:19:29;3.90;99.90
13336;DHT22;6737;51.480;11.962;2024-03-17T02:21:56;3.80;99.90
13336;DHT22;6737;51.480;11.962;2024-03-17T02:24:22;3.80;99.90
13336;DHT22;6737;51.480;11.962;2024-03-17T02:26:48;3.80;99.90
13336;DHT22;6737;51.480;11.962;2024-03-17T02:29:14;3.80;99.90
13336;DHT22;6737;51.480;11.962;2024-03-17T02:31:39;3.90;99.90
13336;DHT22;6737;51.480;11.962;2024-03-17T02:34:05;3.80;99.90
13336;DHT22;6737;51.480;11.962;2024-03-17T02:36:31;3.80;99.90
13336;DHT22;6737;51.480;11.962;2024-03-17T02:38:57;3.80;99.90
13336;DHT22;6737;51.480;11.962;2024-03-17T02:41:44;3.80;99.90
13336;DHT22;6737;51.480;11.962;2024-03-17T02:44:11;3.70;99.90
13336;DHT22;6737;51.480;11.962;2024-03-17T02:46:37;3.70;99.90
13336;DHT22;6737;51.480;11.962;2024-03-17T02:49:04;3.70;99.90
13336;DHT22;6737;51.480;11.962;2024-03-17T02:51:29;3.70;99.90
13336;DHT22;6737;51.480;11.962;2024-03-17T02:53:55;3.80;99.90
13336;DHT22;6737;51.480;11.962;2024-03-17T02:56:21;3.80;99.90
13336;DHT22;6737;51.480;11.962;2024-03-17T02:58:47;3.90;99.90
13336;DHT22;6737;51.480;11.962;2024-03-17T03:01:14;3.90;99.90
13336;DHT22;6737;51.480;11.962;2024-03-17T03:03:41;3.90;99.90
13336;DHT22;6737;51.480;11.962;2024-03-17T03:06:06;3.80;99.90
13336;DHT22;6737;51.480;11.962;2024-03-17T03:08:41;3.70;99.90
13336;DHT22;6737;51.480;11.962;2024-03-17T03:11:11;3.70;99.90
13336;DHT22;6737;51.480;11.962;2024-03-17T03:13:42;3.70;99.90
13336;DHT22;6737;51.480;11.962;2024-03-17T03:16:10;3.70;99.90
13336;DHT22;6737;51.480;11.962;2024-03-17T03:18:37;3.70;99.90
13336;DHT22;6737;51.480;11.962;2024-03-17T03:21:05;3.70;99.90
13336;DHT22;6737;51.480;11.962;2024-03-17T03:23:31;3.70;99.90
13336;DHT22;6737;51.480;11.962;2024-03-17T03:25:58;3.70;99.90
13336;DHT22;6737;51.480;11.962;2024-03-17T03:28:25;3.60;99.90
13336;DHT22;6737;51.480;11.962;2024-03-17T03:30:52;3.60;99.90
13336;DHT22;6737;51.480;11.962;2024-03-17T03:33:21;3.50;99.90
13336;DHT22;6737;51.480;11.962;2024-03-17T03:35:48;3.50;99.90
13336;DHT22;6737;51.480;11.962;2024-03-17T03:38:14;3.50;99.90
13336;DHT22;6737;51.480;11.962;2024-03-17T03:40:43;3.50;99.90
13336;DHT22;6737;51.480;11.962;2024-03-17T03:43:10;3.50;99.90
13336;DHT22;6737;51.480;11.962;2024-03-17T03:45:36;3.40;99.90
13336;DHT22;6737;51.480;11.962;2024-03-17T03:48:03;3.40;99.90
13336;DHT22;6737;51.480;11.962;2024-03-17T03:50:29;3.40;99.90
13336;DHT22;6737;51.480;11.962;2024-03-17T03:52:56;3.30;99.90
13336;DHT22;6737;51.480;11.962;2024-03-17T03:55:21;3.40;99.90
13336;DHT22;6737;51.480;11.962;2024-03-17T03:57:47;3.40;99.90
13336;DHT22;6737;51.480;11.962;2024-03-17T04:00:17;3.40;99.90
13336;DHT22;6737;51.480;11.962;2024-03-17T04:02:51;3.40;99.90
13336;DHT22;6737;51.480;11.962;2024-03-17T04:05:19;3.30;99.90
13336;DHT22;6737;51.480;11.962;2024-03-17T04:07:46;3.40;99.90
13336;DHT22;6737;51.480;11.962;2024-03-17T04:10:13;3.40;99.90
13336;DHT22;6737;51.480;11.962;2024-03-17T04:12:39;3.30;99.90
13336;DHT22;6737;51.480;11.962;2024-03-17T04:15:05;3.20;99.90
13336;DHT22;6737;51.480;11.962;2024-03-17T04:17:36;3.20;99.90
13336;DHT22;6737;51.480;11.962;2024-03-17T04:20:03;3.10;99.90
13336;DHT22;6737;51.480;11.962;2024-03-17T04:22:30;3.00;99.90
13336;DHT22;6737;51.480;11.962;2024-03-17T04:24:56;3.00;99.90
13336;DHT22;6737;51.480;11.962;2024-03-17T04:27:23;3.10;99.90
13336;DHT22;6737;51.480;11.962;2024-03-17T04:29:56;3.20;99.90
13336;DHT22;6737;51.480;11.962;2024-03-17T04:32:23;3.20;99.90
13336;DHT22;6737;51.480;11.962;2024-03-17T04:34:49;3.10;99.90
13336;DHT22;6737;51.480;11.962;2024-03-17T04:37:16;3.10;99.90
13336;DHT22;6737;51.480;11.962;2024-03-17T04:39:43;3.10;99.90
13336;DHT22;6737;51.480;11.962;2024-03-17T04:42:10;3.00;99.90
13336;DHT22;6737;51.480;11.962;2024-03-17T04:44:37;3.10;99.90
13336;DHT22;6737;51.480;11.962;2024-03-17T04:47:03;3.00;99.90
13336;DHT22;6737;51.480;11.962;2024-03-17T04:49:39;3.00;99.90
13336;DHT22;6737;51.480;11.962;2024-03-17T04:52:05;3.00;99.90
13336;DHT22;6737;51.480;11.962;2024-03-17T04:54:32;2.90;99.90
13336;DHT22;6737;51.480;11.962;2024-03-17T04:56:58;2.90;99.90
13336;DHT22;6737;51.480;11.962;2024-03-17T04:59:24;2.90;99.90
13336;DHT22;6737;51.480;11.962;2024-03-17T05:01:50;3.00;99.90
13336;DHT22;6737;51.480;11.962;2024-03-17T05:04:17;3.00;99.90
13336;DHT22;6737;51.480;11.962;2024-03-17T05:06:43;3.00;99.90
13336;DHT22;6737;51.480;11.962;2024-03-17T05:09:18;2.90;99.90
13336;DHT22;6737;51.480;11.962;2024-03-17T05:11:44;2.90;99.90
13336;DHT22;6737;51.480;11.962;2024-03-17T05:14:11;2.80;99.90
13336;DHT22;6737;51.480;11.962;2024-03-17T05:16:36;2.70;99.90
13336;DHT22;6737;51.480;11.962;2024-03-17T05:19:02;2.70;99.90
13336;DHT22;6737;51.480;11.962;2024-03-17T05:21:29;2.50;99.90
13336;DHT22;6737;51.480;11.962;2024-03-17T05:23:56;2.60;99.90
13336;DHT22;6737;51.480;11.962;2024-03-17T05:26:25;2.60;99.90
13336;DHT22;6737;51.480;11.962;2024-03-17T05:28:51;2.60;99.90
13336;DHT22;6737;51.480;11.962;2024-03-17T05:31:17;2.70;99.90
13336;DHT22;6737;51.480;11.962;2024-03-17T05:33:43;2.70;99.90
13336;DHT22;6737;51.480;11.962;2024-03-17T05:36:09;2.60;99.90
13336;DHT22;6737;51.480;11.962;2024-03-17T05:38:35;2.60;99.90
13336;DHT22;6737;51.480;11.962;2024-03-17T05:41:01;2.60;99.90
13336;DHT22;6737;51.480;11.962;2024-03-17T05:43:28;2.50;99.90
13336;DHT22;6737;51.480;11.962;2024-03-17T05:45:54;2.50;99.90
13336;DHT22;6737;51.480;11.962;2024-03-17T05:48:21;2.50;99.90
13336;DHT22;6737;51.480;11.962;2024-03-17T05:50:47;2.60;99.90
13336;DHT22;6737;51.480;11.962;2024-03-17T05:53:13;2.60;99.90
13336;DHT22;6737;51.480;11.962;2024-03-17T05:55:39;2.70;99.90
13336;DHT22;6737;51.480;11.962;2024-03-17T05:58:06;2.70;99.90
13336;DHT22;6737;51.480;11.962;2024-03-17T06:00:36;2.70;99.90
13336;DHT22;6737;51.480;11.962;2024-03-17T06:03:03;2.70;99.90
13336;DHT22;6737;51.480;11.962;2024-03-17T06:05:32;2.60;99.90
13336;DHT22;6737;51.480;11.962;2024-03-17T06:07:59;2.60;99.90
13336;DHT22;6737;51.480;11.962;2024-03-17T06:10:24;2.70;99.90
13336;DHT22;6737;51.480;11.962;2024-03-17T06:12:52;2.70;99.90
13336;DHT22;6737;51.480;11.962;2024-03-17T06:15:18;2.70;99.90
13336;DHT22;6737;51.480;11.962;2024-03-17T06:17:46;2.80;99.90
13336;DHT22;6737;51.480;11.962;2024-03-17T06:20:11;2.80;99.90
13336;DHT22;6737;51.480;11.962;2024-03-17T06:22:39;2.90;99.90
13336;DHT22;6737;51.480;11.962;2024-03-17T06:25:05;2.80;99.90
13336;DHT22;6737;51.480;11.962;2024-03-17T06:27:32;2.90;99.90
13336;DHT22;6737;51.480;11.962;2024-03-17T06:30:00;3.00;99.90
13336;DHT22;6737;51.480;11.962;2024-03-17T06:32:35;3.00;99.90
13336;DHT22;6737;51.480;11.962;2024-03-17T06:35:03;3.00;99.90
13336;DHT22;6737;51.480;11.962;2024-03-17T06:37:29;3.00;99.90
13336;DHT22;6737;51.480;11.962;2024-03-17T06:39:55;3.10;99.90
13336;DHT22;6737;51.480;11.962;2024-03-17T06:42:21;3.20;99.90
13336;DHT22;6737;51.480;11.962;2024-03-17T06:44:46;3.30;99.90
13336;DHT22;6737;51.480;11.962;2024-03-17T06:47:12;3.30;99.90
13336;DHT22;6737;51.480;11.962;2024-03-17T06:49:37;3.40;99.90
13336;DHT22;6737;51.480;11.962;2024-03-17T06:52:03;3.40;99.90
13336;DHT22;6737;51.480;11.962;2024-03-17T06:54:29;3.50;99.90
13336;DHT22;6737;51.480;11.962;2024-03-17T06:56:57;3.50;99.90
13336;DHT22;6737;51.480;11.962;2024-03-17T06:59:22;3.50;99.90
13336;DHT22;6737;51.480;11.962;2024-03-17T07:01:49;3.60;99.90
13336;DHT22;6737;51.480;11.962;2024-03-17T07:04:15;3.70;99.90
13336;DHT22;6737;51.480;11.962;2024-03-17T07:06:42;3.70;99.90
13336;DHT22;6737;51.480;11.962;2024-03-17T07:09:08;3.80;99.90
13336;DHT22;6737;51.480;11.962;2024-03-17T07:11:34;3.80;99.90
13336;DHT22;6737;51.480;11.962;2024-03-17T07:14:00;3.80;99.90
13336;DHT22;6737;51.480;11.962;2024-03-17T07:16:25;3.90;99.90
13336;DHT22;6737;51.480;11.962;2024-03-17T07:18:51;3.90;99.90
13336;DHT22;6737;51.480;11.962;2024-03-17T07:21:18;4.00;99.90
13336;DHT22;6737;51.480;11.962;2024-03-17T07:23:44;4.00;99.90
13336;DHT22;6737;51.480;11.962;2024-03-17T07:26:09;4.20;99.90
13336;DHT22;6737;51.480;11.962;2024-03-17T07:28:35;4.30;99.90
13336;DHT22;6737;51.480;11.962;2024-03-17T07:31:00;4.40;99.90
13336;DHT22;6737;51.480;11.962;2024-03-17T07:33:27;4.40;99.90
13336;DHT22;6737;51.480;11.962;2024-03-17T07:35:53;4.60;99.90
13336;DHT22;6737;51.480;11.962;2024-03-17T07:38:20;4.70;99.90
13336;DHT22;6737;51.480;11.962;2024-03-17T07:40:55;4.80;99.90
13336;DHT22;6737;51.480;11.962;2024-03-17T07:43:22;5.00;99.90
13336;DHT22;6737;51.480;11.962;2024-03-17T07:45:47;5.10;99.90
13336;DHT22;6737;51.480;11.962;2024-03-17T07:48:13;5.30;99.90
13336;DHT22;6737;51.480;11.962;2024-03-17T07:50:38;5.30;99.90
13336;DHT22;6737;51.480;11.962;2024-03-17T07:53:04;5.40;99.90
13336;DHT22;6737;51.480;11.962;2024-03-17T07:55:31;5.30;99.90
13336;DHT22;6737;51.480;11.962;2024-03-17T07:57:56;5.30;99.90
13336;DHT22;6737;51.480;11.962;2024-03-17T08:00:22;5.50;99.90
13336;DHT22;6737;51.480;11.962;2024-03-17T08:02:48;5.50;99.90
13336;DHT22;6737;51.480;11.962;2024-03-17T08:05:13;5.60;99.90
13336;DHT22;6737;51.480;11.962;2024-03-17T08:07:39;5.70;99.90
13336;DHT22;6737;51.480;11.962;2024-03-17T08:10:07;5.80;99.90
13336;DHT22;6737;51.480;11.962;2024-03-17T08:12:33;5.80;99.90
13336;DHT22;6737;51.480;11.962;2024-03-17T08:14:59;5.90;99.90
13336;DHT22;6737;51.480;11.962;2024-03-17T08:17:25;6.00;99.90
13336;DHT22;6737;51.480;11.962;2024-03-17T08:19:51;6.10;99.90
13336;DHT22;6737;51.480;11.962;2024-03-17T08:22:17;6.20;99.90
13336;DHT22;6737;51.480;11.962;2024-03-17T08:24:43;6.30;99.90
13336;DHT22;6737;51.480;11.962;2024-03-17T08:27:08;6.40;99.90
13336;DHT22;6737;51.480;11.962;2024-03-17T08:29:34;6.50;99.90
13336;DHT22;6737;51.480;11.962;2024-03-17T08:32:00;6.60;99.90
13336;DHT22;6737;51.480;11.962;2024-03-17T08:34:26;6.80;99.90
13336;DHT22;6737;51.480;11.962;2024-03-17T08:36:53;6.90;99.90
13336;DHT22;6737;51.480;11.962;2024-03-17T08:39:18;7.00;99.90
13336;DHT22;6737;51.480;11.962;2024-03-17T08:41:44;7.10;99.90
13336;DHT22;6737;51.480;11.962;2024-03-17T08:44:10;7.10;99.90
13336;DHT22;6737;51.480;11.962;2024-03-17T08:46:36;7.20;99.90
13336;DHT22;6737;51.480;11.962;2024-03-17T08:49:02;7.30;99.90
13336;DHT22;6737;51.480;11.962;2024-03-17T08:51:27;7.40;99.90
13336;DHT22;6737;51.480;11.962;2024-03-17T08:53:54;7.40;99.90
13336;DHT22;6737;51.480;11.962;2024-03-17T08:56:19;7.50;99.90
13336;DHT22;6737;51.480;11.962;2024-03-17T08:58:46;7.60;99.90
13336;DHT22;6737;51.480;11.962;2024-03-17T09:01:13;7.70;99.90
13336;DHT22;6737;51.480;11.962;2024-03-17T09:03:40;7.70;99.90
13336;DHT22;6737;51.480;11.962;2024-03-17T09:06:15;7.80;99.90
13336;DHT22;6737;51.480;11.962;2024-03-17T09:08:45;7.90;99.90
13336;DHT22;6737;51.480;11.962;2024-03-17T09:11:13;7.90;99.90
13336;DHT22;6737;51.480;11.962;2024-03-17T09:13:39;8.00;99.90
13336;DHT22;6737;51.480;11.962;2024-03-17T09:16:05;8.10;99.90
13336;DHT22;6737;51.480;11.962;2024-03-17T09:18:31;8.10;99.90
13336;DHT22;6737;51.480;11.962;2024-03-17T09:20:58;8.30;99.90
13336;DHT22;6737;51.480;11.962;2024-03-17T09:23:23;8.30;99.90
13336;DHT22;6737;51.480;11.962;2024-03-17T09:25:59;8.30;99.90
13336;DHT22;6737;51.480;11.962;2024-03-17T09:28:26;8.30;99.90
13336;DHT22;6737;51.480;11.962;2024-03-17T09:30:53;8.20;99.90
13336;DHT22;6737;51.480;11.962;2024-03-17T09:33:20;8.20;99.90
13336;DHT22;6737;51.480;11.962;2024-03-17T09:35:58;8.30;99.90
13336;DHT22;6737;51.480;11.962;2024-03-17T09:38:25;8.20;99.90
13336;DHT22;6737;51.480;11.962;2024-03-17T09:40:52;8.30;99.90
13336;DHT22;6737;51.480;11.962;2024-03-17T09:43:23;8.30;99.90
13336;DHT22;6737;51.480;11.962;2024-03-17T09:45:50;8.50;99.90
13336;DHT22;6737;51.480;11.962;2024-03-17T09:48:20;8.60;99.90
13336;DHT22;6737;51.480;11.962;2024-03-17T09:53:15;8.30;99.90
13336;DHT22;6737;51.480;11.962;2024-03-17T09:55:42;8.40;99.90
13336;DHT22;6737;51.480;11.962;2024-03-17T09:58:12;8.30;99.90
13336;DHT22;6737;51.480;11.962;2024-03-17T10:00:41;8.40;99.90
13336;DHT22;6737;51.480;11.962;2024-03-17T10:03:06;8.40;99.90
13336;DHT22;6737;51.480;11.962;2024-03-17T10:05:32;8.40;99.90
13336;DHT22;6737;51.480;11.962;2024-03-17T10:07:58;8.40;99.90
13336;DHT22;6737;51.480;11.962;2024-03-17T10:10:23;8.50;99.90
13336;DHT22;6737;51.480;11.962;2024-03-17T10:12:50;8.40;99.90
13336;DHT22;6737;51.480;11.962;2024-03-17T10:15:16;8.40;99.90
13336;DHT22;6737;51.480;11.962;2024-03-17T10:17:43;8.40;99.90
13336;DHT22;6737;51.480;11.962;2024-03-17T10:22:38;8.90;99.90
13336;DHT22;6737;51.480;11.962;2024-03-17T10:25:04;8.90;99.90
13336;DHT22;6737;51.480;11.962;2024-03-17T10:27:31;8.90;99.90
13336;DHT22;6737;51.480;11.962;2024-03-17T10:29:57;8.90;99.90
13336;DHT22;6737;51.480;11.962;2024-03-17T10:32:23;8.80;99.90
13336;DHT22;6737;51.480;11.962;2024-03-17T10:34:50;8.70;99.90
13336;DHT22;6737;51.480;11.962;2024-03-17T10:37:17;8.80;99.90
13336;DHT22;6737;51.480;11.962;2024-03-17T10:39:46;8.90;99.90
13336;DHT22;6737;51.480;11.962;2024-03-17T10:42:13;9.00;99.90
13336;DHT22;6737;51.480;11.962;2024-03-17T10:44:43;9.10;99.90
13336;DHT22;6737;51.480;11.962;2024-03-17T10:47:17;9.00;99.90
13336;DHT22;6737;51.480;11.962;2024-03-17T10:49:46;9.20;99.90
13336;DHT22;6737;51.480;11.962;2024-03-17T10:52:15;9.40;99.90
13336;DHT22;6737;51.480;11.962;2024-03-17T10:54:46;9.30;99.90
13336;DHT22;6737;51.480;11.962;2024-03-17T10:57:21;9.20;99.90
13336;DHT22;6737;51.480;11.962;2024-03-17T10:59:51;9.30;99.90
13336;DHT22;6737;51.480;11.962;2024-03-17T11:02:21;9.30;99.90
13336;DHT22;6737;51.480;11.962;2024-03-17T11:04:50;9.20;99.90
13336;DHT22;6737;51.480;11.962;2024-03-17T11:07:16;9.30;99.90
13336;DHT22;6737;51.480;11.962;2024-03-17T11:09:42;9.10;99.90
13336;DHT22;6737;51.480;11.962;2024-03-17T11:15:20;9.00;99.90
13336;DHT22;6737;51.480;11.962;2024-03-17T11:17:39;9.00;99.90
13336;DHT22;6737;51.480;11.962;2024-03-17T11:23:02;9.00;99.90
13336;DHT22;6737;51.480;11.962;2024-03-17T11:27:56;9.20;99.90
13336;DHT22;6737;51.480;11.962;2024-03-17T11:35:50;9.50;99.90
13336;DHT22;6737;51.480;11.962;2024-03-17T11:38:50;9.60;99.90
13336;DHT22;6737;51.480;11.962;2024-03-17T11:44:05;9.70;99.90
13336;DHT22;6737;51.480;11.962;2024-03-17T11:46:38;9.60;99.90
13336;DHT22;6737;51.480;11.962;2024-03-17T11:49:03;9.60;99.90
13336;DHT22;6737;51.480;11.962;2024-03-17T11:51:29;9.70;99.90
13336;DHT22;6737;51.480;11.962;2024-03-17T11:53:58;9.70;99.90
13336;DHT22;6737;51.480;11.962;2024-03-17T11:56:24;9.80;99.90
13336;DHT22;6737;51.480;11.962;2024-03-17T12:01:45;9.70;99.90
13336;DHT22;6737;51.480;11.962;2024-03-17T12:04:13;9.80;99.90
13336;DHT22;6737;51.480;11.962;2024-03-17T12:06:39;9.80;99.90
13336;DHT22;6737;51.480;11.962;2024-03-17T12:11:50;9.90;99.90
13336;DHT22;6737;51.480;11.962;2024-03-17T12:14:18;9.90;99.90
13336;DHT22;6737;51.480;11.962;2024-03-17T12:16:56;9.90;99.90
13336;DHT22;6737;51.480;11.962;2024-03-17T12:19:22;9.90;99.90
13336;DHT22;6737;51.480;11.962;2024-03-17T12:21:49;9.90;99.90
13336;DHT22;6737;51.480;11.962;2024-03-17T12:24:16;9.80;99.90
13336;DHT22;6737;51.480;11.962;2024-03-17T12:26:42;9.70;99.90
13336;DHT22;6737;51.480;11.962;2024-03-17T12:31:53;9.70;99.90
13336;DHT22;6737;51.480;11.962;2024-03-17T12:34:21;9.80;99.90
13336;DHT22;6737;51.480;11.962;2024-03-17T12:36:47;9.70;99.90
13336;DHT22;6737;51.480;11.962;2024-03-17T12:39:20;9.70;99.90
13336;DHT22;6737;51.480;11.962;2024-03-17T12:42:00;9.70;99.90
13336;DHT22;6737;51.480;11.962;2024-03-17T12:44:27;9.60;99.90
13336;DHT22;6737;51.480;11.962;2024-03-17T12:46:59;9.70;99.90
13336;DHT22;6737;51.480;11.962;2024-03-17T12:49:28;9.70;99.90
13336;DHT22;6737;51.480;11.962;2024-03-17T12:51:55;9.80;99.90
13336;DHT22;6737;51.480;11.962;2024-03-17T12:54:22;9.90;99.90
13336;DHT22;6737;51.480;11.962;2024-03-17T12:56:49;10.20;99.90
13336;DHT22;6737;51.480;11.962;2024-03-17T12:59:36;10.30;99.90
13336;DHT22;6737;51.480;11.962;2024-03-17T13:02:20;10.40;99.90
13336;DHT22;6737;51.480;11.962;2024-03-17T13:04:46;10.50;99.90
13336;DHT22;6737;51.480;11.962;2024-03-17T13:07:12;10.60;99.90
13336;DHT22;6737;51.480;11.962;2024-03-17T13:09:38;10.60;99.90
13336;DHT22;6737;51.480;11.962;2024-03-17T13:12:12;10.70;99.90
13336;DHT22;6737;51.480;11.962;2024-03-17T13:14:38;10.60;99.90
13336;DHT22;6737;51.480;11.962;2024-03-17T13:17:04;10.60;99.90
13336;DHT22;6737;51.480;11.962;2024-03-17T13:19:29;10.50;99.90
13336;DHT22;6737;51.480;11.962;2024-03-17T13:21:55;10.50;99.90
13336;DHT22;6737;51.480;11.962;2024-03-17T13:24:21;10.50;99.90
13336;DHT22;6737;51.480;11.962;2024-03-17T13:26:46;10.40;99.90
13336;DHT22;6737;51.480;11.962;2024-03-17T13:29:13;10.40;99.90
13336;DHT22;6737;51.480;11.962;2024-03-17T13:31:39;10.60;99.90
13336;DHT22;6737;51.480;11.962;2024-03-17T13:34:05;10.60;99.90
13336;DHT22;6737;51.480;11.962;2024-03-17T13:36:30;10.60;99.90
13336;DHT22;6737;51.480;11.962;2024-03-17T13:38:56;10.60;99.90
13336;DHT22;6737;51.480;11.962;2024-03-17T13:41:22;10.50;99.90
13336;DHT22;6737;51.480;11.962;2024-03-17T13:43:49;10.60;99.90
13336;DHT22;6737;51.480;11.962;2024-03-17T13:46:15;10.60;99.90
13336;DHT22;6737;51.480;11.962;2024-03-17T13:48:41;10.60;99.90
13336;DHT22;6737;51.480;11.962;2024-03-17T13:51:07;10.50;99.90
13336;DHT22;6737;51.480;11.962;2024-03-17T13:53:33;10.50;99.90
13336;DHT22;6737;51.480;11.962;2024-03-17T13:55:58;10.60;99.90
13336;DHT22;6737;51.480;11.962;2024-03-17T13:58:24;10.60;99.90
13336;DHT22;6737;51.480;11.962;2024-03-17T14:00:50;10.70;99.90
13336;DHT22;6737;51.480;11.962;2024-03-17T14:03:16;10.70;99.90
13336;DHT22;6737;51.480;11.962;2024-03-17T14:05:41;10.80;99.90
13336;DHT22;6737;51.480;11.962;2024-03-17T14:08:07;10.90;99.90
13336;DHT22;6737;51.480;11.962;2024-03-17T14:10:33;10.90;99.90
13336;DHT22;6737;51.480;11.962;2024-03-17T14:12:58;10.80;99.90
13336;DHT22;6737;51.480;11.962;2024-03-17T14:15:24;10.70;99.90
13336;DHT22;6737;51.480;11.962;2024-03-17T14:17:50;10.70;99.90
13336;DHT22;6737;51.480;11.962;2024-03-17T14:20:16;10.70;99.90
13336;DHT22;6737;51.480;11.962;2024-03-17T14:22:44;10.70;99.90
13336;DHT22;6737;51.480;11.962;2024-03-17T14:25:14;10.70;99.90
13336;DHT22;6737;51.480;11.962;2024-03-17T14:27:40;10.70;99.90
13336;DHT22;6737;51.480;11.962;2024-03-17T14:30:06;10.60;99.90
13336;DHT22;6737;51.480;11.962;2024-03-17T14:32:33;10.70;99.90
13336;DHT22;6737;51.480;11.962;2024-03-17T14:34:59;10.80;99.90
13336;DHT22;6737;51.480;11.962;2024-03-17T14:37:25;10.70;99.90
13336;DHT22;6737;51.480;11.962;2024-03-17T14:39:51;10.70;99.90
13336;DHT22;6737;51.480;11.962;2024-03-17T14:42:18;10.80;99.90
13336;DHT22;6737;51.480;11.962;2024-03-17T14:44:45;10.80;99.90
13336;DHT22;6737;51.480;11.962;2024-03-17T14:47:13;10.80;99.90
13336;DHT22;6737;51.480;11.962;2024-03-17T14:49:38;10.80;99.90
13336;DHT22;6737;51.480;11.962;2024-03-17T14:52:04;10.80;99.90
13336;DHT22;6737;51.480;11.962;2024-03-17T14:54:31;10.80;99.90
13336;DHT22;6737;51.480;11.962;2024-03-17T14:56:56;10.70;99.90
13336;DHT22;6737;51.480;11.962;2024-03-17T14:59:22;10.70;99.90
13336;DHT22;6737;51.480;11.962;2024-03-17T15:01:48;10.70;99.90
13336;DHT22;6737;51.480;11.962;2024-03-17T15:04:14;10.60;99.90
13336;DHT22;6737;51.480;11.962;2024-03-17T15:06:40;10.50;99.90
13336;DHT22;6737;51.480;11.962;2024-03-17T15:09:06;10.50;99.90
13336;DHT22;6737;51.480;11.962;2024-03-17T15:11:31;10.50;99.90
13336;DHT22;6737;51.480;11.962;2024-03-17T15:13:57;10.40;99.90
13336;DHT22;6737;51.480;11.962;2024-03-17T15:16:23;10.40;99.90
13336;DHT22;6737;51.480;11.962;2024-03-17T15:18:49;10.40;99.90
13336;DHT22;6737;51.480;11.962;2024-03-17T15:21:16;10.40;99.90
13336;DHT22;6737;51.480;11.962;2024-03-17T15:23:41;10.40;99.90
13336;DHT22;6737;51.480;11.962;2024-03-17T15:26:07;10.40;99.90
13336;DHT22;6737;51.480;11.962;2024-03-17T15:28:43;10.40;99.90
13336;DHT22;6737;51.480;11.962;2024-03-17T15:31:09;10.40;99.90
13336;DHT22;6737;51.480;11.962;2024-03-17T15:33:35;10.50;99.90
13336;DHT22;6737;51.480;11.962;2024-03-17T15:36:05;10.40;99.90
13336;DHT22;6737;51.480;11.962;2024-03-17T15:38:31;10.40;99.90
13336;DHT22;6737;51.480;11.962;2024-03-17T15:41:07;10.40;99.90
13336;DHT22;6737;51.480;11.962;2024-03-17T15:43:33;10.30;99.90
13336;DHT22;6737;51.480;11.962;2024-03-17T15:46:02;10.20;99.90
13336;DHT22;6737;51.480;11.962;2024-03-17T15:48:27;10.40;99.90
13336;DHT22;6737;51.480;11.962;2024-03-17T15:50:56;10.40;99.90
13336;DHT22;6737;51.480;11.962;2024-03-17T15:53:23;10.30;99.90
13336;DHT22;6737;51.480;11.962;2024-03-17T15:55:56;10.30;99.90
13336;DHT22;6737;51.480;11.962;2024-03-17T15:58:26;10.30;99.90
13336;DHT22;6737;51.480;11.962;2024-03-17T16:00:53;10.30;99.90
13336;DHT22;6737;51.480;11.962;2024-03-17T16:03:19;10.20;99.90
13336;DHT22;6737;51.480;11.962;2024-03-17T16:05:47;10.20;99.90
13336;DHT22;6737;51.480;11.962;2024-03-17T16:08:19;10.20;99.90
13336;DHT22;6737;51.480;11.962;2024-03-17T16:10:52;10.10;99.90
13336;DHT22;6737;51.480;11.962;2024-03-17T16:13:21;10.10;99.90